Time;durP1;ratioP1;P1;durP2;ratioP2;P2;SDS_P1;SDS_P2;PMS_P1;PMS_P2;Temp;Humidity;BMP_temperature;BMP_pressure;BME280_temperature;BME280_humidity;BME280_pressure;Samples;Min_cycle;Max_cycle;Signal;HPM_P1;HPM_P2
2021/10/31 10:49:49;;;;;;;;;;;;;;;15.89;100.00;97958.19;5076313;28;19917;-67
2021/10/31 10:52:20;;;;;;;;;;;;;;;16.29;100.00;97965.78;5048040;28;19927;-66
2021/10/31 10:54:46;;;;;;;;;;;;;;;16.21;100.00;97962.88;5036216;28;20303;-67
2021/10/31 10:57:12;;;;;;;;;;;;;;;15.89;100.00;97954.78;5040651;28;19924;-67
2021/10/31 10:59:37;;;;;;;;;;;;;;;16.26;100.00;97949.56;5043569;28;19977;-67
2021/10/31 11:02:12;;;;;;;;;;;;;;;16.15;100.00;97942.56;5041055;28;19921;-66
2021/10/31 11:04:37;;;;;;;;;;;;;;;16.42;100.00;97937.13;5041824;28;19920;-67
2021/10/31 11:07:03;;;;;;;;;;;;;;;15.95;100.00;97923.19;5040370;28;20525;-67
2021/10/31 11:09:55;;;;;;;;;;;;;;;16.40;100.00;97919.97;5049900;28;20439;-67
2021/10/31 11:12:20;;;;;;;;;;;;;;;16.77;100.00;97909.47;5033419;28;19918;-66
2021/10/31 11:14:45;;;;;;;;;;;;;;;16.81;100.00;97900.53;5045997;28;19932;-67
2021/10/31 11:17:12;;;;;;;;;;;;;;;16.61;100.00;97902.81;5039076;28;20004;-67
2021/10/31 11:19:56;;;;;;;;;;;;;;;16.98;100.00;97900.09;5040985;28;20031;-66
2021/10/31 11:22:41;;;;;;;;;;;;;;;16.97;100.00;97888.03;5032657;28;19921;-67
2021/10/31 11:25:38;;;;;;;;;;;;;;;17.26;100.00;97879.75;5037796;28;19960;-67
2021/10/31 11:28:34;;;;;;;;;;;;;;;16.90;100.00;97872.06;5040559;28;19921;-66
2021/10/31 11:31:33;;;;;;;;;;;;;;;17.20;100.00;97859.44;5041908;28;20039;-63
2021/10/31 11:34:29;;;;;;;;;;;;;;;17.27;100.00;97860.63;5040930;28;20403;-63
2021/10/31 11:37:24;;;;;;;;;;;;;;;16.85;100.00;97858.56;4983863;28;20388;-63
2021/10/31 11:46:18;;;;;;;;;;;;;;;18.22;100.00;97834.81;4957427;28;20943;-64
2021/10/31 11:49:29;;;;;;;;;;;;;;;18.04;100.00;97836.31;4958762;28;19954;-64
2021/10/31 11:51:56;;;;;;;;;;;;;;;18.05;100.00;97822.34;4947902;28;19914;-63
2021/10/31 11:54:22;;;;;;;;;;;;;;;17.97;100.00;97823.81;4956260;28;20057;-64
2021/10/31 11:56:51;;;;;;;;;;;;;;;18.05;100.00;97814.53;4960827;28;20412;-64
2021/10/31 11:59:25;;;;;;;;;;;;;;;18.18;100.00;97809.97;4957392;28;19922;-64
2021/10/31 12:01:56;;;;;;;;;;;;;;;18.30;100.00;97802.91;4947427;29;19914;-63
2021/10/31 12:04:25;;;;;;;;;;;;;;;18.04;100.00;97802.44;4946707;29;19921;-63
2021/10/31 12:06:51;;;;;;;;;;;;;;;18.11;100.00;97806.19;4943693;28;19922;-63
2021/10/31 12:09:27;;;;;;;;;;;;;;;18.27;100.00;97796.19;4945081;28;19949;-63
2021/10/31 12:11:55;;;;;;;;;;;;;;;18.42;100.00;97788.03;4958302;28;19918;-66
2021/10/31 12:14:40;;;;;;;;;;;;;;;18.54;100.00;97781.78;4956347;28;20747;-63
2021/10/31 12:17:06;;;;;;;;;;;;;;;18.42;100.00;97767.19;4984993;28;20535;-64
2021/10/31 12:19:38;;;;;;;;;;;;;;;18.63;100.00;97765.34;5047549;28;19917;-64
2021/10/31 12:22:05;;;;;;;;;;;;;;;18.39;100.00;97763.88;5046222;28;19917;-64
2021/10/31 12:24:38;;;;;;;;;;;;;;;18.67;100.00;97761.53;5048172;28;19975;-63
2021/10/31 12:27:10;;;;;;;;;;;;;;;18.76;100.00;97757.34;5029768;28;20046;-64
2021/10/31 12:29:36;;;;;;;;;;;;;;;18.74;100.00;97757.44;5028550;28;19946;-64
2021/10/31 12:32:02;;;;;;;;;;;;;;;19.05;100.00;97754.84;5027048;28;20451;-64
2021/10/31 12:34:34;;;;;;;;;;;;;;;18.70;100.00;97745.66;5028213;28;19967;-64
2021/10/31 12:37:00;;;;;;;;;;;;;;;18.88;100.00;97737.22;5028074;28;19944;-64
2021/10/31 12:39:28;;;;;;;;;;;;;;;19.39;100.00;97733.63;5028220;28;19963;-64
2021/10/31 12:42:13;;;;;;;;;;;;;;;18.78;100.00;97731.97;5028270;28;19916;-64
2021/10/31 12:44:59;;;;;;;;;;;;;;;18.74;100.00;97725.34;5027338;28;20516;-64
2021/10/31 12:47:33;;;;;;;;;;;;;;;18.52;100.00;97727.19;5039228;28;19924;-64
2021/10/31 12:50:16;;;;;;;;;;;;;;;18.51;100.00;97719.47;5041212;28;20480;-64
2021/10/31 12:52:42;;;;;;;;;;;;;;;18.32;100.00;97718.44;5028146;28;19963;-64
2021/10/31 12:55:08;;;;;;;;;;;;;;;18.56;100.00;97712.09;5028235;28;19913;-64
2021/10/31 12:57:34;;;;;;;;;;;;;;;18.63;100.00;97696.75;5027400;28;19975;-63
2021/10/31 13:00:04;;;;;;;;;;;;;;;18.55;100.00;97695.63;5027997;28;19913;-63
2021/10/31 13:02:30;;;;;;;;;;;;;;;18.43;100.00;97690.63;5027696;28;19917;-64
2021/10/31 13:04:57;;;;;;;;;;;;;;;18.36;100.00;97688.56;5026489;28;19939;-63
2021/10/31 13:07:35;;;;;;;;;;;;;;;18.15;100.00;97682.53;5027943;28;20605;-64
2021/10/31 13:10:01;;;;;;;;;;;;;;;18.37;100.00;97682.38;5039841;28;19912;-64
2021/10/31 13:12:28;;;;;;;;;;;;;;;18.51;100.00;97675.16;5046808;28;19943;-64
2021/10/31 13:15:00;;;;;;;;;;;;;;;18.39;100.00;97664.81;5030520;28;19925;-64
2021/10/31 13:17:30;;;;;;;;;;;;;;;18.53;100.00;97657.59;5027865;28;20339;-64
2021/10/31 13:20:05;;;;;;;;;;;;;;;18.03;100.00;97654.91;5028332;28;19921;-63
2021/10/31 13:22:30;;;;;;;;;;;;;;;18.17;100.00;97655.38;5027773;28;20347;-63
2021/10/31 13:24:56;;;;;;;;;;;;;;;18.38;100.00;97651.91;5042138;28;19912;-63
2021/10/31 13:27:22;;;;;;;;;;;;;;;18.58;100.00;97640.59;5047209;28;19971;-64
2021/10/31 13:29:48;;;;;;;;;;;;;;;18.48;100.00;97646.75;5047073;28;20542;-63
2021/10/31 13:32:19;;;;;;;;;;;;;;;18.23;100.00;97640.22;5047236;28;19927;-64
2021/10/31 13:34:45;;;;;;;;;;;;;;;18.38;100.00;97634.53;5038717;28;19921;-64
2021/10/31 13:37:11;;;;;;;;;;;;;;;18.21;100.00;97624.69;5027364;28;19971;-63
2021/10/31 13:39:36;;;;;;;;;;;;;;;18.19;100.00;97616.19;5027419;28;19917;-63
2021/10/31 13:42:04;;;;;;;;;;;;;;;18.15;100.00;97609.59;5027184;28;19920;-63
2021/10/31 13:44:29;;;;;;;;;;;;;;;18.47;100.00;97592.94;5026360;28;19917;-63
2021/10/31 13:46:58;;;;;;;;;;;;;;;18.60;100.00;97604.78;5026867;28;20023;-63
2021/10/31 13:49:24;;;;;;;;;;;;;;;17.85;100.00;97603.41;5025585;28;19921;-63
2021/10/31 13:51:50;;;;;;;;;;;;;;;17.83;100.00;97600.09;5027101;28;19948;-64
2021/10/31 13:54:16;;;;;;;;;;;;;;;17.86;100.00;97593.81;5024097;28;19913;-63
2021/10/31 13:56:42;;;;;;;;;;;;;;;17.63;100.00;97601.75;5015308;28;19970;-63
2021/10/31 13:59:08;;;;;;;;;;;;;;;17.95;100.00;97604.31;5043439;28;19913;-64
2021/10/31 14:01:35;;;;;;;;;;;;;;;18.08;100.00;97608.47;5046892;28;19913;-64
2021/10/31 14:04:08;;;;;;;;;;;;;;;17.88;100.00;97603.16;5046907;28;19912;-64
2021/10/31 14:06:33;;;;;;;;;;;;;;;18.00;100.00;97596.09;5047115;28;19913;-64
2021/10/31 14:08:59;;;;;;;;;;;;;;;18.03;100.00;97589.78;5046938;28;19927;-64
2021/10/31 14:11:24;;;;;;;;;;;;;;;17.95;100.00;97583.47;5046719;28;20461;-64
2021/10/31 14:13:50;;;;;;;;;;;;;;;17.77;100.00;97574.56;5036261;28;19917;-64
2021/10/31 14:16:16;;;;;;;;;;;;;;;17.99;100.00;97568.38;5036278;28;19917;-64
2021/10/31 14:18:41;;;;;;;;;;;;;;;17.76;100.00;97570.31;5045927;28;19921;-64
2021/10/31 14:21:08;;;;;;;;;;;;;;;17.84;100.00;97570.53;5046830;28;19955;-63
2021/10/31 14:23:34;;;;;;;;;;;;;;;18.08;100.00;97556.34;5043468;28;19913;-63
2021/10/31 14:26:01;;;;;;;;;;;;;;;18.28;100.00;97555.47;5026631;28;19924;-64
2021/10/31 14:28:30;;;;;;;;;;;;;;;17.56;100.00;97557.19;5026397;28;19944;-63
2021/10/31 14:30:57;;;;;;;;;;;;;;;17.86;100.00;97542.56;5026660;28;19971;-64
2021/10/31 14:33:23;;;;;;;;;;;;;;;17.80;100.00;97543.06;5026717;28;20480;-64
2021/10/31 14:35:57;;;;;;;;;;;;;;;17.56;100.00;97528.56;5026798;28;19914;-63
2021/10/31 14:38:27;;;;;;;;;;;;;;;17.31;100.00;97537.59;5026326;28;20272;-64
2021/10/31 14:41:00;;;;;;;;;;;;;;;17.84;100.00;97544.47;5026205;28;19913;-64
2021/10/31 14:43:25;;;;;;;;;;;;;;;17.71;100.00;97541.22;5038923;28;19920;-64
2021/10/31 14:45:55;;;;;;;;;;;;;;;17.55;100.00;97537.31;5020365;28;20464;-63
2021/10/31 14:48:27;;;;;;;;;;;;;;;17.21;100.00;97534.09;5026259;28;19951;-63
2021/10/31 14:50:52;;;;;;;;;;;;;;;17.62;100.00;97526.38;5026414;28;19917;-64
2021/10/31 14:53:19;;;;;;;;;;;;;;;17.46;100.00;97519.03;5045911;28;19923;-64
2021/10/31 14:55:46;;;;;;;;;;;;;;;17.58;100.00;97518.00;5044005;28;20257;-64
2021/10/31 14:58:13;;;;;;;;;;;;;;;17.52;100.00;97514.16;5026673;28;20583;-63
2021/10/31 15:00:38;;;;;;;;;;;;;;;17.80;100.00;97526.63;5040747;28;19913;-64
2021/10/31 15:03:05;;;;;;;;;;;;;;;17.38;100.00;97516.25;5039416;28;19949;-63
2021/10/31 15:05:31;;;;;;;;;;;;;;;17.48;100.00;97512.75;5026152;28;19919;-63
2021/10/31 15:07:59;;;;;;;;;;;;;;;17.59;100.00;97503.22;5025982;28;19979;-63
2021/10/31 15:10:25;;;;;;;;;;;;;;;17.54;100.00;97494.03;5025921;28;19914;-63
2021/10/31 15:12:50;;;;;;;;;;;;;;;17.58;100.00;97480.75;5025785;28;19924;-63
2021/10/31 15:15:16;;;;;;;;;;;;;;;17.52;100.00;97493.31;5026010;28;20296;-63
2021/10/31 15:17:43;;;;;;;;;;;;;;;17.56;100.00;97497.31;5025217;28;19919;-63
2021/10/31 15:20:10;;;;;;;;;;;;;;;17.66;100.00;97484.34;5026727;28;20446;-63
2021/10/31 15:22:36;;;;;;;;;;;;;;;17.37;100.00;97479.00;5033313;28;19921;-63
2021/10/31 15:25:02;;;;;;;;;;;;;;;17.56;100.00;97473.91;5043461;28;19920;-64
2021/10/31 15:27:28;;;;;;;;;;;;;;;17.44;100.00;97467.09;5025920;28;20468;-64
2021/10/31 15:29:58;;;;;;;;;;;;;;;17.43;100.00;97457.66;5025508;28;19917;-63
2021/10/31 15:32:23;;;;;;;;;;;;;;;17.43;100.00;97465.47;5026014;28;19920;-64
2021/10/31 15:34:49;;;;;;;;;;;;;;;17.51;100.00;97459.59;5022707;28;19917;-64
2021/10/31 15:37:16;;;;;;;;;;;;;;;17.59;100.00;97462.41;5028239;28;19936;-64
2021/10/31 15:39:41;;;;;;;;;;;;;;;17.50;100.00;97461.41;5029412;28;20004;-64
2021/10/31 15:42:07;;;;;;;;;;;;;;;17.53;100.00;97455.09;5029570;28;20032;-63
2021/10/31 15:44:32;;;;;;;;;;;;;;;17.46;100.00;97461.78;5043840;28;19913;-63
2021/10/31 15:46:59;;;;;;;;;;;;;;;17.38;100.00;97459.00;5049734;28;19952;-64
2021/10/31 15:49:24;;;;;;;;;;;;;;;17.48;100.00;97460.69;5047188;28;20502;-63
2021/10/31 15:51:50;;;;;;;;;;;;;;;17.69;100.00;97452.00;5027872;28;19921;-63
2021/10/31 15:54:15;;;;;;;;;;;;;;;17.29;100.00;97445.81;5029007;28;19939;-63
2021/10/31 15:56:41;;;;;;;;;;;;;;;17.45;100.00;97439.34;5027632;28;19943;-63
2021/10/31 15:59:07;;;;;;;;;;;;;;;17.37;100.00;97436.53;5029932;28;19914;-64
2021/10/31 16:01:33;;;;;;;;;;;;;;;17.52;100.00;97433.47;5037547;28;19920;-63
2021/10/31 16:04:03;;;;;;;;;;;;;;;17.33;100.00;97425.56;5049017;28;19923;-64
2021/10/31 16:06:28;;;;;;;;;;;;;;;17.61;100.00;97418.00;5047635;28;20399;-64
2021/10/31 16:08:54;;;;;;;;;;;;;;;17.22;100.00;97402.22;5048477;28;19920;-64
2021/10/31 16:11:19;;;;;;;;;;;;;;;17.37;100.00;97411.34;5034963;28;20551;-64
2021/10/31 16:13:45;;;;;;;;;;;;;;;17.31;100.00;97402.28;5030531;28;19917;-64
2021/10/31 16:16:11;;;;;;;;;;;;;;;17.24;100.00;97405.53;5041014;28;20008;-64
2021/10/31 16:18:36;;;;;;;;;;;;;;;17.32;100.00;97408.31;5031283;28;19917;-66
2021/10/31 16:21:03;;;;;;;;;;;;;;;17.36;100.00;97409.69;5031180;28;19967;-64
2021/10/31 16:23:29;;;;;;;;;;;;;;;17.23;100.00;97406.50;5032174;28;20436;-66
2021/10/31 16:25:54;;;;;;;;;;;;;;;17.24;100.00;97401.16;5039478;28;19913;-67
2021/10/31 16:28:20;;;;;;;;;;;;;;;17.21;100.00;97405.78;5034097;28;19921;-67
2021/10/31 16:30:46;;;;;;;;;;;;;;;17.19;100.00;97392.09;5022979;28;19948;-67
2021/10/31 16:33:11;;;;;;;;;;;;;;;17.17;100.00;97386.19;5045196;28;19962;-67
2021/10/31 16:35:37;;;;;;;;;;;;;;;17.18;100.00;97390.47;5048112;28;20071;-67
2021/10/31 16:38:02;;;;;;;;;;;;;;;17.05;100.00;97393.25;5049339;28;19913;-67
2021/10/31 16:40:32;;;;;;;;;;;;;;;17.23;100.00;97380.47;5049666;28;19912;-66
2021/10/31 16:42:58;;;;;;;;;;;;;;;17.36;100.00;97383.69;5034416;28;19955;-67
2021/10/31 16:45:24;;;;;;;;;;;;;;;17.39;100.00;97378.19;5029195;28;19956;-67
2021/10/31 16:47:51;;;;;;;;;;;;;;;17.33;100.00;97373.53;5028911;28;20090;-67
2021/10/31 16:50:19;;;;;;;;;;;;;;;17.43;100.00;97379.59;5020846;28;19948;-67
2021/10/31 16:52:45;;;;;;;;;;;;;;;17.37;100.00;97367.09;5028179;28;19921;-66
2021/10/31 16:55:11;;;;;;;;;;;;;;;17.46;100.00;97370.69;5029928;28;19994;-66
2021/10/31 16:57:36;;;;;;;;;;;;;;;17.64;100.00;97360.47;5027886;28;19917;-67
2021/10/31 17:00:05;;;;;;;;;;;;;;;17.67;100.00;97347.19;5028821;28;19979;-66
2021/10/31 17:02:31;;;;;;;;;;;;;;;17.68;100.00;97341.03;5031333;28;19924;-67
2021/10/31 17:04:56;;;;;;;;;;;;;;;17.39;100.00;97336.56;5048969;28;20402;-67
2021/10/31 17:07:24;;;;;;;;;;;;;;;17.68;100.00;97331.44;5032829;28;19914;-67
2021/10/31 17:09:59;;;;;;;;;;;;;;;17.48;100.00;97333.16;5027078;28;19921;-66
2021/10/31 17:12:26;;;;;;;;;;;;;;;17.70;100.00;97333.91;5029089;28;19928;-67
2021/10/31 17:14:51;;;;;;;;;;;;;;;17.57;100.00;97328.94;5023737;28;19925;-66
2021/10/31 17:17:16;;;;;;;;;;;;;;;17.59;100.00;97321.00;5027875;28;19919;-66
2021/10/31 17:19:42;;;;;;;;;;;;;;;17.55;100.00;97326.47;5028281;28;20652;-66
2021/10/31 17:22:07;;;;;;;;;;;;;;;17.24;100.00;97307.50;5027275;28;19917;-66
2021/10/31 17:24:32;;;;;;;;;;;;;;;17.54;100.00;97314.44;5028543;28;20004;-67
2021/10/31 17:26:58;;;;;;;;;;;;;;;17.57;100.00;97308.13;5028011;28;19913;-67
2021/10/31 17:29:23;;;;;;;;;;;;;;;17.33;100.00;97311.91;5027744;28;19952;-67
2021/10/31 17:31:49;;;;;;;;;;;;;;;17.41;100.00;97311.25;5027570;28;19979;-67
2021/10/31 17:34:14;;;;;;;;;;;;;;;17.42;100.00;97296.44;5038576;28;19940;-66
2021/10/31 17:36:41;;;;;;;;;;;;;;;17.41;100.00;97293.03;5047893;28;19924;-67
2021/10/31 17:39:07;;;;;;;;;;;;;;;17.44;100.00;97297.94;5048015;28;19917;-67
2021/10/31 17:41:32;;;;;;;;;;;;;;;17.16;100.00;97302.13;5048107;28;19913;-66
2021/10/31 17:43:59;;;;;;;;;;;;;;;17.48;100.00;97295.91;5048105;28;20011;-68
2021/10/31 17:46:26;;;;;;;;;;;;;;;17.32;100.00;97299.03;5027170;28;19924;-67
2021/10/31 17:48:54;;;;;;;;;;;;;;;17.40;100.00;97293.97;5027291;28;19920;-66
2021/10/31 17:51:21;;;;;;;;;;;;;;;17.20;100.00;97292.31;5024511;28;19925;-67
2021/10/31 17:53:46;;;;;;;;;;;;;;;17.32;100.00;97296.44;5026709;28;19913;-66
2021/10/31 17:56:17;;;;;;;;;;;;;;;17.23;100.00;97287.63;5022316;28;20307;-67
2021/10/31 17:58:42;;;;;;;;;;;;;;;17.12;100.00;97296.34;5017871;28;19984;-66
2021/10/31 18:01:09;;;;;;;;;;;;;;;17.20;100.00;97290.50;5017161;28;20447;-67
2021/10/31 18:03:37;;;;;;;;;;;;;;;17.31;100.00;97279.16;5025230;28;20516;-66
2021/10/31 18:06:03;;;;;;;;;;;;;;;17.22;100.00;97274.75;5022946;28;20048;-67
2021/10/31 18:08:29;;;;;;;;;;;;;;;16.99;100.00;97280.19;5022144;28;19932;-67
2021/10/31 18:10:54;;;;;;;;;;;;;;;17.17;100.00;97266.53;5032647;28;19917;-66
2021/10/31 18:13:19;;;;;;;;;;;;;;;17.05;100.00;97271.84;5038481;28;19921;-67
2021/10/31 18:15:45;;;;;;;;;;;;;;;17.01;100.00;97270.44;5027578;28;19921;-67
2021/10/31 18:18:11;;;;;;;;;;;;;;;17.02;100.00;97272.13;5027323;28;19913;-67
2021/10/31 18:20:36;;;;;;;;;;;;;;;17.26;100.00;97270.94;5026254;28;19921;-67
2021/10/31 18:23:06;;;;;;;;;;;;;;;17.13;100.00;97255.59;5026476;28;19925;-67
2021/10/31 18:25:32;;;;;;;;;;;;;;;17.07;100.00;97249.13;5025491;28;20028;-67
2021/10/31 18:28:00;;;;;;;;;;;;;;;17.04;100.00;97254.59;5027489;28;20047;-67
2021/10/31 18:30:25;;;;;;;;;;;;;;;17.18;100.00;97236.97;5032350;28;19963;-67
2021/10/31 18:32:51;;;;;;;;;;;;;;;17.07;100.00;97243.09;5047564;28;20601;-67
2021/10/31 18:35:18;;;;;;;;;;;;;;;17.13;100.00;97238.19;5028531;28;19917;-66
2021/10/31 18:37:45;;;;;;;;;;;;;;;17.14;100.00;97229.44;5024697;28;19923;-66
2021/10/31 18:40:14;;;;;;;;;;;;;;;17.09;100.00;97217.78;5026536;28;20338;-66
2021/10/31 18:42:41;;;;;;;;;;;;;;;17.23;100.00;97212.19;5026622;28;20658;-66
2021/10/31 18:45:07;;;;;;;;;;;;;;;17.10;100.00;97217.63;5025530;28;20693;-66
2021/10/31 18:47:32;;;;;;;;;;;;;;;17.10;100.00;97207.22;5025182;28;19917;-66
2021/10/31 18:49:57;;;;;;;;;;;;;;;17.10;100.00;97196.00;5025407;28;19917;-66
2021/10/31 18:52:23;;;;;;;;;;;;;;;17.20;100.00;97193.44;5026429;28;19917;-66
2021/10/31 18:54:48;;;;;;;;;;;;;;;17.15;100.00;97186.03;5018622;28;19960;-66
2021/10/31 18:57:14;;;;;;;;;;;;;;;17.18;100.00;97156.34;5020594;28;20085;-66
2021/10/31 18:59:39;;;;;;;;;;;;;;;17.31;100.00;97162.06;5027023;28;19976;-66
2021/10/31 19:02:05;;;;;;;;;;;;;;;17.27;100.00;97153.75;5025502;28;19918;-66
2021/10/31 19:04:30;;;;;;;;;;;;;;;17.34;100.00;97147.03;5027416;28;19913;-67
2021/10/31 19:06:56;;;;;;;;;;;;;;;17.56;100.00;97135.53;5027568;28;19924;-67
2021/10/31 19:09:22;;;;;;;;;;;;;;;17.28;100.00;97133.75;5028193;28;19940;-66
2021/10/31 19:11:47;;;;;;;;;;;;;;;17.22;100.00;97122.13;5032784;28;20003;-66
2021/10/31 19:14:13;;;;;;;;;;;;;;;17.45;100.00;97116.63;5020351;28;20010;-66
2021/10/31 19:16:38;;;;;;;;;;;;;;;17.43;100.00;97108.97;5031176;28;20039;-66
2021/10/31 19:19:04;;;;;;;;;;;;;;;17.32;100.00;97106.50;5033329;28;19917;-66
2021/10/31 19:21:33;;;;;;;;;;;;;;;17.38;100.00;97110.31;5030771;28;19921;-66
2021/10/31 19:23:59;;;;;;;;;;;;;;;17.25;100.00;97105.41;5032661;28;19917;-66
2021/10/31 19:26:24;;;;;;;;;;;;;;;17.38;100.00;97111.16;5032132;28;19924;-66
2021/10/31 19:28:50;;;;;;;;;;;;;;;17.27;100.00;97085.28;5033235;28;19932;-67
2021/10/31 19:31:18;;;;;;;;;;;;;;;17.25;100.00;97085.41;5031229;28;19960;-67
2021/10/31 19:33:44;;;;;;;;;;;;;;;17.33;100.00;97097.72;5030946;28;19952;-67
2021/10/31 19:36:10;;;;;;;;;;;;;;;17.24;100.00;97091.59;5046125;28;19959;-67
2021/10/31 19:38:36;;;;;;;;;;;;;;;17.21;100.00;97083.22;5052369;28;19916;-67
2021/10/31 19:41:07;;;;;;;;;;;;;;;17.24;100.00;97080.34;5026648;28;19964;-67
2021/10/31 19:46:36;;;;;;;;;;;;;;;17.25;100.00;97095.00;5027192;28;19924;-67
2021/10/31 19:49:05;;;;;;;;;;;;;;;17.15;100.00;97100.19;5029224;28;19921;-66
2021/10/31 19:51:31;;;;;;;;;;;;;;;17.32;100.00;97093.50;5027246;28;20051;-67
2021/10/31 19:53:57;;;;;;;;;;;;;;;17.43;100.00;97106.34;5027080;28;19996;-67
2021/10/31 19:56:23;;;;;;;;;;;;;;;17.38;100.00;97102.50;5028105;28;19963;-67
2021/10/31 19:58:49;;;;;;;;;;;;;;;17.40;100.00;97104.00;5028257;28;19914;-67
2021/10/31 20:01:15;;;;;;;;;;;;;;;17.64;100.00;97093.16;5027953;28;19940;-67
2021/10/31 20:03:41;;;;;;;;;;;;;;;17.63;100.00;97083.72;5027613;28;19963;-67
2021/10/31 20:06:07;;;;;;;;;;;;;;;17.41;100.00;97090.06;5029304;28;19917;-67
2021/10/31 20:08:35;;;;;;;;;;;;;;;17.41;100.00;97071.84;5028358;28;19921;-67
2021/10/31 20:11:01;;;;;;;;;;;;;;;17.45;100.00;97080.19;5033364;28;20361;-67
2021/10/31 20:13:26;;;;;;;;;;;;;;;17.68;100.00;97080.69;5031534;28;19917;-67
2021/10/31 20:15:52;;;;;;;;;;;;;;;17.39;100.00;97071.16;5027123;28;19943;-67
2021/10/31 20:18:18;;;;;;;;;;;;;;;17.45;100.00;97065.41;5028638;28;19917;-66
2021/10/31 20:20:46;;;;;;;;;;;;;;;17.33;100.00;97075.16;5028003;28;19956;-67
2021/10/31 20:23:12;;;;;;;;;;;;;;;17.47;100.00;97068.69;5027995;28;19932;-67
2021/10/31 20:25:37;;;;;;;;;;;;;;;17.35;100.00;97064.59;5029249;28;19924;-67
2021/10/31 20:28:03;;;;;;;;;;;;;;;17.57;100.00;97079.06;5028727;28;19931;-66
2021/10/31 20:30:29;;;;;;;;;;;;;;;17.56;100.00;97073.06;5049078;28;19913;-67
2021/10/31 20:32:54;;;;;;;;;;;;;;;17.58;100.00;97074.69;5036243;28;20051;-67
2021/10/31 20:35:20;;;;;;;;;;;;;;;17.64;100.00;97087.16;5023432;28;19970;-67
2021/10/31 20:37:46;;;;;;;;;;;;;;;17.59;100.00;97084.16;5028173;28;19917;-67
2021/10/31 20:40:12;;;;;;;;;;;;;;;17.70;100.00;97104.81;5028373;28;20316;-67
2021/10/31 20:42:39;;;;;;;;;;;;;;;17.70;100.00;97113.44;5029536;28;19924;-67
2021/10/31 20:45:05;;;;;;;;;;;;;;;17.73;100.00;97120.97;5028180;28;19920;-67
2021/10/31 20:47:30;;;;;;;;;;;;;;;17.83;100.00;97147.00;5028211;28;19918;-67
2021/10/31 20:49:56;;;;;;;;;;;;;;;17.68;100.00;97148.38;5035296;28;19921;-67
2021/10/31 20:52:21;;;;;;;;;;;;;;;17.33;100.00;97166.22;5027740;28;19920;-67
2021/10/31 20:54:48;;;;;;;;;;;;;;;17.28;100.00;97189.19;5020032;28;19924;-67
2021/10/31 20:57:13;;;;;;;;;;;;;;;16.23;100.00;97280.44;5027002;28;19928;-68
2021/10/31 20:59:39;;;;;;;;;;;;;;;14.69;100.00;97332.38;5016104;28;19921;-67
2021/10/31 21:02:05;;;;;;;;;;;;;;;14.25;100.00;97404.63;5008849;28;20432;-65
2021/10/31 21:04:31;;;;;;;;;;;;;;;13.93;100.00;97438.81;5026906;28;19928;-66
2021/10/31 21:07:04;;;;;;;;;;;;;;;13.64;100.00;97440.88;5036736;28;19921;-66
2021/10/31 21:09:29;;;;;;;;;;;;;;;13.67;100.00;97469.13;5022994;28;19929;-66
2021/10/31 21:11:55;;;;;;;;;;;;;;;13.84;100.00;97485.22;5028819;28;19920;-66
2021/10/31 21:14:21;;;;;;;;;;;;;;;13.92;100.00;97495.88;5028576;28;20373;-66
2021/10/31 21:16:47;;;;;;;;;;;;;;;14.28;100.00;97504.56;5026826;28;19971;-67
2021/10/31 21:19:12;;;;;;;;;;;;;;;14.11;100.00;97513.53;5013698;28;20652;-66
2021/10/31 21:21:38;;;;;;;;;;;;;;;14.06;100.00;97516.44;5023434;28;19956;-67
2021/10/31 21:24:10;;;;;;;;;;;;;;;14.01;100.00;97523.72;5028257;28;20331;-66
2021/10/31 21:26:36;;;;;;;;;;;;;;;13.55;100.00;97542.41;5020030;28;19965;-67
2021/10/31 21:29:02;;;;;;;;;;;;;;;13.37;100.00;97563.38;5027600;28;19918;-67
2021/10/31 21:31:28;;;;;;;;;;;;;;;13.60;100.00;97567.00;5021785;28;19917;-66
2021/10/31 21:33:53;;;;;;;;;;;;;;;13.50;100.00;97565.97;5025332;28;19917;-67
2021/10/31 21:36:19;;;;;;;;;;;;;;;13.29;100.00;97567.38;5028193;28;19924;-67
2021/10/31 21:38:47;;;;;;;;;;;;;;;13.50;100.00;97571.16;5026034;28;19928;-67
2021/10/31 21:41:14;;;;;;;;;;;;;;;13.27;100.00;97533.84;5025774;28;20269;-67
2021/10/31 21:43:40;;;;;;;;;;;;;;;13.48;100.00;97515.25;5029396;28;19921;-67
2021/10/31 21:46:05;;;;;;;;;;;;;;;13.30;100.00;97512.19;5029907;28;19986;-67
2021/10/31 21:48:33;;;;;;;;;;;;;;;13.30;100.00;97515.59;5022390;28;20013;-66
2021/10/31 21:50:58;;;;;;;;;;;;;;;13.59;100.00;97515.38;5025948;28;19913;-67
2021/10/31 21:53:24;;;;;;;;;;;;;;;13.61;100.00;97510.91;5027741;28;20071;-67
2021/10/31 21:55:49;;;;;;;;;;;;;;;13.10;100.00;97508.31;5029745;28;19917;-67
2021/10/31 21:58:15;;;;;;;;;;;;;;;13.09;100.00;97510.06;5030305;28;20439;-65
2021/10/31 22:00:43;;;;;;;;;;;;;;;12.87;100.00;97505.47;5029420;28;19988;-67
2021/10/31 22:03:08;;;;;;;;;;;;;;;13.27;100.00;97518.31;5027450;28;20333;-67
2021/10/31 22:05:34;;;;;;;;;;;;;;;13.52;100.00;97514.13;5027848;28;19963;-67
2021/10/31 22:07:59;;;;;;;;;;;;;;;13.32;100.00;97505.97;5025550;28;20508;-66
2021/10/31 22:10:25;;;;;;;;;;;;;;;13.34;100.00;97514.47;5027783;28;20012;-67
2021/10/31 22:12:50;;;;;;;;;;;;;;;13.30;100.00;97507.84;5028203;28;19956;-67
2021/10/31 22:15:18;;;;;;;;;;;;;;;13.02;100.00;97507.97;5027658;28;20237;-67
2021/10/31 22:17:44;;;;;;;;;;;;;;;12.97;100.00;97505.69;5027909;28;19912;-67
2021/10/31 22:20:09;;;;;;;;;;;;;;;12.90;100.00;97510.41;5028109;28;19948;-67
2021/10/31 22:22:35;;;;;;;;;;;;;;;13.11;100.00;97512.53;5028369;28;19917;-67
2021/10/31 22:25:03;;;;;;;;;;;;;;;12.87;100.00;97502.88;5027896;28;19917;-67
2021/10/31 22:27:28;;;;;;;;;;;;;;;13.44;100.00;97493.97;5026523;28;19968;-67
2021/10/31 22:29:54;;;;;;;;;;;;;;;12.98;100.00;97474.59;5027737;28;20344;-67
2021/10/31 22:32:19;;;;;;;;;;;;;;;12.94;100.00;97473.13;5026767;28;19974;-67
2021/10/31 22:34:45;;;;;;;;;;;;;;;12.82;100.00;97471.38;5027971;28;20380;-67
2021/10/31 22:37:11;;;;;;;;;;;;;;;13.61;100.00;97469.53;5027884;28;19936;-66
2021/10/31 22:39:36;;;;;;;;;;;;;;;13.35;100.00;97464.38;5027773;28;19917;-67
2021/10/31 22:42:04;;;;;;;;;;;;;;;13.78;100.00;97486.50;5027736;28;19913;-67
2021/10/31 22:44:30;;;;;;;;;;;;;;;13.09;100.00;97488.53;5027264;28;20024;-67
2021/10/31 22:46:56;;;;;;;;;;;;;;;13.58;100.00;97499.03;5027841;28;19913;-67
2021/10/31 22:49:21;;;;;;;;;;;;;;;14.42;100.00;97513.03;5027535;28;20395;-67
2021/10/31 22:51:48;;;;;;;;;;;;;;;14.18;100.00;97494.03;5027516;28;19921;-66
2021/10/31 22:54:14;;;;;;;;;;;;;;;14.38;100.00;97490.84;5029477;28;19913;-67
2021/10/31 22:56:39;;;;;;;;;;;;;;;14.34;100.00;97473.06;5030069;28;19923;-68
2021/10/31 22:59:05;;;;;;;;;;;;;;;14.17;100.00;97467.31;5028841;28;19913;-67
2021/10/31 23:01:30;;;;;;;;;;;;;;;14.38;100.00;97464.13;5029480;28;19947;-67
2021/10/31 23:03:56;;;;;;;;;;;;;;;14.40;100.00;97477.81;5028627;28;19913;-67
2021/10/31 23:06:23;;;;;;;;;;;;;;;14.60;100.00;97479.81;5029861;28;20376;-67
2021/10/31 23:08:48;;;;;;;;;;;;;;;14.45;100.00;97465.34;5028669;28;19917;-67
2021/10/31 23:11:15;;;;;;;;;;;;;;;13.66;100.00;97464.03;5030008;28;20325;-67
2021/10/31 23:13:41;;;;;;;;;;;;;;;13.80;100.00;97482.88;5029605;28;19917;-67
2021/10/31 23:16:08;;;;;;;;;;;;;;;14.03;100.00;97488.19;5030114;28;19920;-67
2021/10/31 23:18:34;;;;;;;;;;;;;;;14.38;100.00;97464.97;5029708;28;19999;-67
2021/10/31 23:21:00;;;;;;;;;;;;;;;14.30;100.00;97461.25;5030101;28;19924;-67
2021/10/31 23:23:25;;;;;;;;;;;;;;;14.39;100.00;97460.59;5029755;28;19914;-67
2021/10/31 23:25:51;;;;;;;;;;;;;;;14.38;100.00;97475.31;5029834;28;19913;-67
2021/10/31 23:28:19;;;;;;;;;;;;;;;14.36;100.00;97486.72;5029854;28;19918;-67
2021/10/31 23:30:45;;;;;;;;;;;;;;;14.05;100.00;97504.44;5029765;28;20363;-67
2021/10/31 23:33:10;;;;;;;;;;;;;;;13.46;100.00;97523.16;5030032;28;19913;-67
2021/10/31 23:35:36;;;;;;;;;;;;;;;13.70;100.00;97520.63;5028441;28;19917;-67